sensor_id;sensor_type;location;lat;lon;timestamp;P1;durP1;ratioP1;P2;durP2;ratioP2
59649;SDS011;46162;57.568;25.814;2022-11-18T00:01:31;1.20;;;0.10;;
59649;SDS011;46162;57.568;25.814;2022-11-18T00:04:00;0.95;;;0.10;;
59649;SDS011;46162;57.568;25.814;2022-11-18T00:06:29;0.88;;;0.10;;
59649;SDS011;46162;57.568;25.814;2022-11-18T00:08:58;1.55;;;0.10;;
59649;SDS011;46162;57.568;25.814;2022-11-18T00:11:27;1.20;;;0.10;;
59649;SDS011;46162;57.568;25.814;2022-11-18T00:14:15;2.15;;;0.10;;
59649;SDS011;46162;57.568;25.814;2022-11-18T00:16:50;1.15;;;0.10;;
59649;SDS011;46162;57.568;25.814;2022-11-18T00:19:21;1.27;;;0.10;;
59649;SDS011;46162;57.568;25.814;2022-11-18T00:21:50;1.30;;;0.10;;
59649;SDS011;46162;57.568;25.814;2022-11-18T00:24:19;1.27;;;0.10;;
59649;SDS011;46162;57.568;25.814;2022-11-18T00:26:48;2.55;;;0.10;;
59649;SDS011;46162;57.568;25.814;2022-11-18T00:29:18;1.10;;;0.10;;
59649;SDS011;46162;57.568;25.814;2022-11-18T00:31:47;1.35;;;0.17;;
59649;SDS011;46162;57.568;25.814;2022-11-18T00:34:17;2.10;;;0.10;;
59649;SDS011;46162;57.568;25.814;2022-11-18T00:36:46;1.45;;;0.10;;
59649;SDS011;46162;57.568;25.814;2022-11-18T00:39:15;1.52;;;0.10;;
59649;SDS011;46162;57.568;25.814;2022-11-18T00:41:46;1.27;;;0.10;;
59649;SDS011;46162;57.568;25.814;2022-11-18T00:44:34;1.52;;;0.20;;
59649;SDS011;46162;57.568;25.814;2022-11-18T00:47:03;1.70;;;0.20;;
59649;SDS011;46162;57.568;25.814;2022-11-18T00:49:32;1.55;;;0.10;;
59649;SDS011;46162;57.568;25.814;2022-11-18T00:52:01;1.38;;;0.10;;
59649;SDS011;46162;57.568;25.814;2022-11-18T00:54:29;1.58;;;0.10;;
59649;SDS011;46162;57.568;25.814;2022-11-18T00:56:58;1.38;;;0.10;;
59649;SDS011;46162;57.568;25.814;2022-11-18T00:59:26;1.70;;;0.20;;
59649;SDS011;46162;57.568;25.814;2022-11-18T01:01:57;1.85;;;0.10;;
59649;SDS011;46162;57.568;25.814;2022-11-18T01:04:25;1.77;;;0.30;;
59649;SDS011;46162;57.568;25.814;2022-11-18T01:06:54;1.85;;;0.20;;
59649;SDS011;46162;57.568;25.814;2022-11-18T01:09:22;1.20;;;0.10;;
59649;SDS011;46162;57.568;25.814;2022-11-18T01:11:51;1.80;;;0.40;;
59649;SDS011;46162;57.568;25.814;2022-11-18T01:14:36;1.45;;;0.10;;
59649;SDS011;46162;57.568;25.814;2022-11-18T01:17:07;1.70;;;0.20;;
59649;SDS011;46162;57.568;25.814;2022-11-18T01:19:36;1.58;;;0.20;;
59649;SDS011;46162;57.568;25.814;2022-11-18T01:22:05;1.80;;;0.25;;
59649;SDS011;46162;57.568;25.814;2022-11-18T01:24:33;1.48;;;0.15;;
59649;SDS011;46162;57.568;25.814;2022-11-18T01:27:02;1.67;;;0.20;;
59649;SDS011;46162;57.568;25.814;2022-11-18T01:29:31;1.70;;;0.10;;
59649;SDS011;46162;57.568;25.814;2022-11-18T01:31:59;1.40;;;0.10;;
59649;SDS011;46162;57.568;25.814;2022-11-18T01:34:49;1.00;;;0.10;;
59649;SDS011;46162;57.568;25.814;2022-11-18T01:37:18;1.48;;;0.10;;
59649;SDS011;46162;57.568;25.814;2022-11-18T01:39:46;1.52;;;0.20;;
59649;SDS011;46162;57.568;25.814;2022-11-18T01:42:15;1.92;;;0.22;;
59649;SDS011;46162;57.568;25.814;2022-11-18T01:45:02;1.33;;;0.10;;
59649;SDS011;46162;57.568;25.814;2022-11-18T01:47:37;1.55;;;0.20;;
59649;SDS011;46162;57.568;25.814;2022-11-18T01:50:10;1.48;;;0.10;;
59649;SDS011;46162;57.568;25.814;2022-11-18T01:52:42;2.13;;;0.20;;
59649;SDS011;46162;57.568;25.814;2022-11-18T01:55:17;1.95;;;0.20;;
59649;SDS011;46162;57.568;25.814;2022-11-18T01:57:50;1.83;;;0.20;;
59649;SDS011;46162;57.568;25.814;2022-11-18T02:00:25;2.22;;;0.20;;
59649;SDS011;46162;57.568;25.814;2022-11-18T02:02:53;1.40;;;0.20;;
59649;SDS011;46162;57.568;25.814;2022-11-18T02:05:25;1.00;;;0.10;;
59649;SDS011;46162;57.568;25.814;2022-11-18T02:07:54;2.20;;;0.22;;
59649;SDS011;46162;57.568;25.814;2022-11-18T02:10:23;1.95;;;0.10;;
59649;SDS011;46162;57.568;25.814;2022-11-18T02:12:52;1.90;;;0.20;;
59649;SDS011;46162;57.568;25.814;2022-11-18T02:15:25;2.20;;;0.30;;
59649;SDS011;46162;57.568;25.814;2022-11-18T02:18:11;1.73;;;0.10;;
59649;SDS011;46162;57.568;25.814;2022-11-18T02:20:49;2.17;;;0.20;;
59649;SDS011;46162;57.568;25.814;2022-11-18T02:26:32;2.03;;;0.20;;
59649;SDS011;46162;57.568;25.814;2022-11-18T02:29:19;2.17;;;0.30;;
59649;SDS011;46162;57.568;25.814;2022-11-18T02:31:54;2.17;;;0.10;;
59649;SDS011;46162;57.568;25.814;2022-11-18T02:34:32;2.00;;;0.22;;
59649;SDS011;46162;57.568;25.814;2022-11-18T02:37:09;1.95;;;0.13;;
59649;SDS011;46162;57.568;25.814;2022-11-18T02:39:44;2.00;;;0.17;;
59649;SDS011;46162;57.568;25.814;2022-11-18T02:42:18;2.15;;;0.30;;
59649;SDS011;46162;57.568;25.814;2022-11-18T02:44:51;1.80;;;0.20;;
59649;SDS011;46162;57.568;25.814;2022-11-18T02:47:25;2.45;;;0.20;;
59649;SDS011;46162;57.568;25.814;2022-11-18T02:49:57;1.83;;;0.28;;
59649;SDS011;46162;57.568;25.814;2022-11-18T02:52:28;2.47;;;0.25;;
59649;SDS011;46162;57.568;25.814;2022-11-18T02:55:00;3.72;;;0.20;;
59649;SDS011;46162;57.568;25.814;2022-11-18T02:57:33;2.15;;;0.20;;
59649;SDS011;46162;57.568;25.814;2022-11-18T03:00:05;2.30;;;0.35;;
59649;SDS011;46162;57.568;25.814;2022-11-18T03:02:38;2.15;;;0.30;;
59649;SDS011;46162;57.568;25.814;2022-11-18T03:05:09;2.90;;;0.60;;
59649;SDS011;46162;57.568;25.814;2022-11-18T03:07:55;2.15;;;0.20;;
59649;SDS011;46162;57.568;25.814;2022-11-18T03:10:31;2.85;;;0.40;;
59649;SDS011;46162;57.568;25.814;2022-11-18T03:13:06;2.47;;;0.25;;
59649;SDS011;46162;57.568;25.814;2022-11-18T03:15:49;2.95;;;0.40;;
59649;SDS011;46162;57.568;25.814;2022-11-18T03:18:26;3.10;;;0.30;;
59649;SDS011;46162;57.568;25.814;2022-11-18T03:21:01;4.15;;;0.50;;
59649;SDS011;46162;57.568;25.814;2022-11-18T03:23:37;3.03;;;0.35;;
59649;SDS011;46162;57.568;25.814;2022-11-18T03:26:08;2.58;;;0.30;;
59649;SDS011;46162;57.568;25.814;2022-11-18T03:28:41;1.92;;;0.20;;
59649;SDS011;46162;57.568;25.814;2022-11-18T03:31:18;2.83;;;0.30;;
59649;SDS011;46162;57.568;25.814;2022-11-18T03:33:52;3.08;;;0.47;;
59649;SDS011;46162;57.568;25.814;2022-11-18T03:36:26;2.35;;;0.43;;
59649;SDS011;46162;57.568;25.814;2022-11-18T03:38:59;2.83;;;0.57;;
59649;SDS011;46162;57.568;25.814;2022-11-18T03:41:34;3.55;;;0.80;;
59649;SDS011;46162;57.568;25.814;2022-11-18T03:44:09;3.00;;;0.65;;
59649;SDS011;46162;57.568;25.814;2022-11-18T03:46:43;2.05;;;0.40;;
59649;SDS011;46162;57.568;25.814;2022-11-18T03:49:16;4.20;;;0.80;;
59649;SDS011;46162;57.568;25.814;2022-11-18T03:51:50;2.70;;;0.60;;
59649;SDS011;46162;57.568;25.814;2022-11-18T03:54:24;2.60;;;0.70;;
59649;SDS011;46162;57.568;25.814;2022-11-18T03:56:56;4.63;;;1.30;;
59649;SDS011;46162;57.568;25.814;2022-11-18T03:59:30;3.65;;;1.10;;
59649;SDS011;46162;57.568;25.814;2022-11-18T04:02:05;4.50;;;1.02;;
59649;SDS011;46162;57.568;25.814;2022-11-18T04:04:38;3.63;;;0.98;;
59649;SDS011;46162;57.568;25.814;2022-11-18T04:07:10;4.43;;;1.33;;
59649;SDS011;46162;57.568;25.814;2022-11-18T04:09:50;5.20;;;1.20;;
59649;SDS011;46162;57.568;25.814;2022-11-18T04:12:23;4.32;;;1.15;;
59649;SDS011;46162;57.568;25.814;2022-11-18T04:14:55;4.75;;;1.48;;
59649;SDS011;46162;57.568;25.814;2022-11-18T04:17:26;4.82;;;1.90;;
59649;SDS011;46162;57.568;25.814;2022-11-18T04:19:56;7.50;;;1.88;;
59649;SDS011;46162;57.568;25.814;2022-11-18T04:22:25;5.38;;;1.50;;
59649;SDS011;46162;57.568;25.814;2022-11-18T04:24:53;5.05;;;1.75;;
59649;SDS011;46162;57.568;25.814;2022-11-18T04:27:23;5.57;;;1.90;;
59649;SDS011;46162;57.568;25.814;2022-11-18T04:29:52;3.55;;;1.35;;
59649;SDS011;46162;57.568;25.814;2022-11-18T04:32:21;4.00;;;1.45;;
59649;SDS011;46162;57.568;25.814;2022-11-18T04:34:51;3.90;;;1.50;;
59649;SDS011;46162;57.568;25.814;2022-11-18T04:37:20;6.90;;;2.35;;
59649;SDS011;46162;57.568;25.814;2022-11-18T04:39:49;5.40;;;1.92;;
59649;SDS011;46162;57.568;25.814;2022-11-18T04:42:17;5.00;;;1.52;;
59649;SDS011;46162;57.568;25.814;2022-11-18T04:44:46;4.65;;;1.60;;
59649;SDS011;46162;57.568;25.814;2022-11-18T04:47:15;5.55;;;1.90;;
59649;SDS011;46162;57.568;25.814;2022-11-18T04:49:44;4.78;;;2.13;;
59649;SDS011;46162;57.568;25.814;2022-11-18T04:52:14;6.40;;;2.30;;
59649;SDS011;46162;57.568;25.814;2022-11-18T04:54:43;7.03;;;2.40;;
59649;SDS011;46162;57.568;25.814;2022-11-18T04:57:12;6.25;;;2.13;;
59649;SDS011;46162;57.568;25.814;2022-11-18T04:59:41;5.88;;;1.85;;
59649;SDS011;46162;57.568;25.814;2022-11-18T05:02:10;7.10;;;2.40;;
59649;SDS011;46162;57.568;25.814;2022-11-18T05:04:38;6.32;;;2.80;;
59649;SDS011;46162;57.568;25.814;2022-11-18T05:07:07;7.28;;;3.33;;
59649;SDS011;46162;57.568;25.814;2022-11-18T05:09:42;7.80;;;3.08;;
59649;SDS011;46162;57.568;25.814;2022-11-18T05:12:11;6.03;;;2.50;;
59649;SDS011;46162;57.568;25.814;2022-11-18T05:14:58;7.80;;;3.40;;
59649;SDS011;46162;57.568;25.814;2022-11-18T05:17:27;6.22;;;2.42;;
59649;SDS011;46162;57.568;25.814;2022-11-18T05:19:55;6.80;;;2.80;;
59649;SDS011;46162;57.568;25.814;2022-11-18T05:22:24;6.80;;;3.33;;
59649;SDS011;46162;57.568;25.814;2022-11-18T05:24:54;7.97;;;3.42;;
59649;SDS011;46162;57.568;25.814;2022-11-18T05:27:23;6.05;;;2.80;;
59649;SDS011;46162;57.568;25.814;2022-11-18T05:29:52;8.35;;;3.40;;
59649;SDS011;46162;57.568;25.814;2022-11-18T05:32:20;7.53;;;3.20;;
59649;SDS011;46162;57.568;25.814;2022-11-18T05:34:49;7.00;;;3.35;;
59649;SDS011;46162;57.568;25.814;2022-11-18T05:37:18;6.88;;;3.15;;
59649;SDS011;46162;57.568;25.814;2022-11-18T05:39:47;7.20;;;2.92;;
59649;SDS011;46162;57.568;25.814;2022-11-18T05:42:17;9.15;;;3.20;;
59649;SDS011;46162;57.568;25.814;2022-11-18T05:45:06;6.82;;;2.90;;
59649;SDS011;46162;57.568;25.814;2022-11-18T05:47:35;6.25;;;2.80;;
59649;SDS011;46162;57.568;25.814;2022-11-18T05:50:27;9.68;;;3.15;;
59649;SDS011;46162;57.568;25.814;2022-11-18T05:52:56;5.43;;;2.45;;
59649;SDS011;46162;57.568;25.814;2022-11-18T05:55:26;6.25;;;2.88;;
59649;SDS011;46162;57.568;25.814;2022-11-18T05:57:58;5.38;;;2.45;;
59649;SDS011;46162;57.568;25.814;2022-11-18T06:00:27;7.23;;;2.93;;
59649;SDS011;46162;57.568;25.814;2022-11-18T06:02:56;7.15;;;3.42;;
59649;SDS011;46162;57.568;25.814;2022-11-18T06:05:26;5.93;;;2.78;;
59649;SDS011;46162;57.568;25.814;2022-11-18T06:07:55;4.65;;;1.83;;
59649;SDS011;46162;57.568;25.814;2022-11-18T06:10:25;6.28;;;2.65;;
59649;SDS011;46162;57.568;25.814;2022-11-18T06:12:59;8.90;;;3.15;;
59649;SDS011;46162;57.568;25.814;2022-11-18T06:15:32;6.10;;;2.72;;
59649;SDS011;46162;57.568;25.814;2022-11-18T06:18:06;8.07;;;2.85;;
59649;SDS011;46162;57.568;25.814;2022-11-18T06:20:38;6.50;;;2.92;;
59649;SDS011;46162;57.568;25.814;2022-11-18T06:23:08;7.32;;;2.50;;
59649;SDS011;46162;57.568;25.814;2022-11-18T06:25:36;6.07;;;2.78;;
59649;SDS011;46162;57.568;25.814;2022-11-18T06:28:09;6.40;;;2.83;;
59649;SDS011;46162;57.568;25.814;2022-11-18T06:30:39;7.45;;;3.30;;
59649;SDS011;46162;57.568;25.814;2022-11-18T06:33:08;8.32;;;3.65;;
59649;SDS011;46162;57.568;25.814;2022-11-18T06:35:37;7.10;;;3.10;;
59649;SDS011;46162;57.568;25.814;2022-11-18T06:38:06;7.63;;;3.17;;
59649;SDS011;46162;57.568;25.814;2022-11-18T06:40:34;8.32;;;3.85;;
59649;SDS011;46162;57.568;25.814;2022-11-18T06:43:04;7.75;;;3.50;;
59649;SDS011;46162;57.568;25.814;2022-11-18T06:45:52;8.15;;;3.63;;
59649;SDS011;46162;57.568;25.814;2022-11-18T06:48:42;7.63;;;3.10;;
59649;SDS011;46162;57.568;25.814;2022-11-18T06:51:11;6.15;;;2.78;;
59649;SDS011;46162;57.568;25.814;2022-11-18T06:53:40;6.13;;;3.13;;
59649;SDS011;46162;57.568;25.814;2022-11-18T06:56:10;6.55;;;2.95;;
59649;SDS011;46162;57.568;25.814;2022-11-18T06:58:40;7.45;;;2.60;;
59649;SDS011;46162;57.568;25.814;2022-11-18T07:01:11;8.85;;;3.28;;
59649;SDS011;46162;57.568;25.814;2022-11-18T07:03:42;5.65;;;2.85;;
59649;SDS011;46162;57.568;25.814;2022-11-18T07:06:13;9.98;;;3.63;;
59649;SDS011;46162;57.568;25.814;2022-11-18T07:08:45;6.72;;;3.35;;
59649;SDS011;46162;57.568;25.814;2022-11-18T07:11:16;6.03;;;2.95;;
59649;SDS011;46162;57.568;25.814;2022-11-18T07:13:47;6.43;;;3.08;;
59649;SDS011;46162;57.568;25.814;2022-11-18T07:16:18;7.47;;;3.03;;
59649;SDS011;46162;57.568;25.814;2022-11-18T07:18:48;8.30;;;2.97;;
59649;SDS011;46162;57.568;25.814;2022-11-18T07:21:21;7.40;;;3.40;;
59649;SDS011;46162;57.568;25.814;2022-11-18T07:23:51;8.65;;;3.95;;
59649;SDS011;46162;57.568;25.814;2022-11-18T07:26:20;6.72;;;3.00;;
59649;SDS011;46162;57.568;25.814;2022-11-18T07:28:50;7.13;;;2.90;;
59649;SDS011;46162;57.568;25.814;2022-11-18T07:31:20;7.93;;;2.90;;
59649;SDS011;46162;57.568;25.814;2022-11-18T07:33:49;7.07;;;2.92;;
59649;SDS011;46162;57.568;25.814;2022-11-18T07:38:50;6.70;;;2.42;;
59649;SDS011;46162;57.568;25.814;2022-11-18T07:41:19;6.07;;;2.95;;
59649;SDS011;46162;57.568;25.814;2022-11-18T07:43:49;5.93;;;2.67;;
59649;SDS011;46162;57.568;25.814;2022-11-18T07:46:29;4.82;;;2.30;;
59649;SDS011;46162;57.568;25.814;2022-11-18T07:48:59;8.35;;;2.70;;
59649;SDS011;46162;57.568;25.814;2022-11-18T07:51:29;5.53;;;1.98;;
59649;SDS011;46162;57.568;25.814;2022-11-18T07:54:00;4.57;;;1.92;;
59649;SDS011;46162;57.568;25.814;2022-11-18T07:56:32;5.85;;;2.30;;
59649;SDS011;46162;57.568;25.814;2022-11-18T07:59:01;5.95;;;2.15;;
59649;SDS011;46162;57.568;25.814;2022-11-18T08:01:32;4.45;;;2.00;;
59649;SDS011;46162;57.568;25.814;2022-11-18T08:04:04;6.82;;;2.47;;
59649;SDS011;46162;57.568;25.814;2022-11-18T08:06:34;5.47;;;2.00;;
59649;SDS011;46162;57.568;25.814;2022-11-18T08:09:03;4.13;;;1.67;;
59649;SDS011;46162;57.568;25.814;2022-11-18T08:11:32;6.25;;;2.30;;
59649;SDS011;46162;57.568;25.814;2022-11-18T08:14:01;5.07;;;1.85;;
59649;SDS011;46162;57.568;25.814;2022-11-18T08:16:31;4.75;;;1.98;;
59649;SDS011;46162;57.568;25.814;2022-11-18T08:19:00;5.50;;;1.60;;
59649;SDS011;46162;57.568;25.814;2022-11-18T08:21:29;6.90;;;1.92;;
59649;SDS011;46162;57.568;25.814;2022-11-18T08:23:58;5.55;;;1.90;;
59649;SDS011;46162;57.568;25.814;2022-11-18T08:26:26;4.95;;;1.83;;
59649;SDS011;46162;57.568;25.814;2022-11-18T08:28:56;10.18;;;1.95;;
59649;SDS011;46162;57.568;25.814;2022-11-18T08:31:25;6.13;;;1.70;;
59649;SDS011;46162;57.568;25.814;2022-11-18T08:33:58;8.63;;;2.45;;
59649;SDS011;46162;57.568;25.814;2022-11-18T08:36:29;7.50;;;2.35;;
59649;SDS011;46162;57.568;25.814;2022-11-18T08:39:00;6.60;;;2.20;;
59649;SDS011;46162;57.568;25.814;2022-11-18T08:41:31;7.63;;;2.67;;
59649;SDS011;46162;57.568;25.814;2022-11-18T08:44:01;12.35;;;3.25;;
59649;SDS011;46162;57.568;25.814;2022-11-18T08:46:30;7.93;;;2.90;;
59649;SDS011;46162;57.568;25.814;2022-11-18T08:49:01;6.18;;;3.00;;
59649;SDS011;46162;57.568;25.814;2022-11-18T08:51:30;6.40;;;2.58;;
59649;SDS011;46162;57.568;25.814;2022-11-18T08:53:59;7.25;;;2.97;;
59649;SDS011;46162;57.568;25.814;2022-11-18T08:56:28;7.53;;;2.83;;
59649;SDS011;46162;57.568;25.814;2022-11-18T08:58:56;6.45;;;2.58;;
59649;SDS011;46162;57.568;25.814;2022-11-18T09:01:25;7.65;;;2.97;;
59649;SDS011;46162;57.568;25.814;2022-11-18T09:03:54;8.20;;;3.80;;
59649;SDS011;46162;57.568;25.814;2022-11-18T09:06:25;8.02;;;3.35;;
59649;SDS011;46162;57.568;25.814;2022-11-18T09:08:53;9.20;;;3.47;;
59649;SDS011;46162;57.568;25.814;2022-11-18T09:11:27;7.00;;;2.78;;
59649;SDS011;46162;57.568;25.814;2022-11-18T09:13:56;7.60;;;3.03;;
59649;SDS011;46162;57.568;25.814;2022-11-18T09:16:48;7.55;;;3.58;;
59649;SDS011;46162;57.568;25.814;2022-11-18T09:19:17;8.93;;;2.90;;
59649;SDS011;46162;57.568;25.814;2022-11-18T09:22:07;6.80;;;2.85;;
59649;SDS011;46162;57.568;25.814;2022-11-18T09:24:36;9.98;;;3.10;;
59649;SDS011;46162;57.568;25.814;2022-11-18T09:27:06;9.43;;;3.33;;
59649;SDS011;46162;57.568;25.814;2022-11-18T09:29:42;7.25;;;3.13;;
59649;SDS011;46162;57.568;25.814;2022-11-18T09:32:11;8.75;;;3.25;;
59649;SDS011;46162;57.568;25.814;2022-11-18T09:34:41;6.25;;;2.67;;
59649;SDS011;46162;57.568;25.814;2022-11-18T09:37:11;7.40;;;2.95;;
59649;SDS011;46162;57.568;25.814;2022-11-18T09:39:40;6.80;;;2.63;;
59649;SDS011;46162;57.568;25.814;2022-11-18T09:42:12;8.07;;;2.70;;
59649;SDS011;46162;57.568;25.814;2022-11-18T09:45:01;6.13;;;2.65;;
59649;SDS011;46162;57.568;25.814;2022-11-18T09:47:40;6.60;;;2.08;;
59649;SDS011;46162;57.568;25.814;2022-11-18T09:50:10;8.60;;;2.53;;
59649;SDS011;46162;57.568;25.814;2022-11-18T09:53:05;6.03;;;2.85;;
59649;SDS011;46162;57.568;25.814;2022-11-18T09:55:45;6.40;;;2.70;;
59649;SDS011;46162;57.568;25.814;2022-11-18T09:58:16;6.05;;;2.33;;
59649;SDS011;46162;57.568;25.814;2022-11-18T10:00:50;6.25;;;2.40;;
59649;SDS011;46162;57.568;25.814;2022-11-18T10:03:25;8.00;;;2.22;;
59649;SDS011;46162;57.568;25.814;2022-11-18T10:05:56;6.95;;;1.95;;
59649;SDS011;46162;57.568;25.814;2022-11-18T10:08:33;6.68;;;2.42;;
59649;SDS011;46162;57.568;25.814;2022-11-18T10:11:09;6.68;;;2.28;;
59649;SDS011;46162;57.568;25.814;2022-11-18T10:13:47;5.80;;;2.30;;
59649;SDS011;46162;57.568;25.814;2022-11-18T10:16:31;6.53;;;2.40;;
59649;SDS011;46162;57.568;25.814;2022-11-18T10:19:12;5.68;;;2.10;;
59649;SDS011;46162;57.568;25.814;2022-11-18T10:21:52;7.23;;;2.67;;
59649;SDS011;46162;57.568;25.814;2022-11-18T10:24:29;5.93;;;2.15;;
59649;SDS011;46162;57.568;25.814;2022-11-18T10:27:07;6.15;;;2.00;;
59649;SDS011;46162;57.568;25.814;2022-11-18T10:29:37;5.32;;;2.20;;
59649;SDS011;46162;57.568;25.814;2022-11-18T10:32:07;7.47;;;2.50;;
59649;SDS011;46162;57.568;25.814;2022-11-18T10:34:45;5.85;;;2.20;;
59649;SDS011;46162;57.568;25.814;2022-11-18T10:37:23;4.85;;;1.48;;
59649;SDS011;46162;57.568;25.814;2022-11-18T10:40:24;5.93;;;2.17;;
59649;SDS011;46162;57.568;25.814;2022-11-18T10:45:24;5.30;;;2.55;;
59649;SDS011;46162;57.568;25.814;2022-11-18T10:47:56;5.97;;;2.05;;
59649;SDS011;46162;57.568;25.814;2022-11-18T10:50:28;6.35;;;2.40;;
59649;SDS011;46162;57.568;25.814;2022-11-18T10:52:59;5.90;;;2.40;;
59649;SDS011;46162;57.568;25.814;2022-11-18T10:55:30;5.93;;;2.72;;
59649;SDS011;46162;57.568;25.814;2022-11-18T10:58:00;6.32;;;2.15;;
59649;SDS011;46162;57.568;25.814;2022-11-18T11:00:32;7.32;;;2.13;;
59649;SDS011;46162;57.568;25.814;2022-11-18T11:06:19;6.53;;;2.15;;
59649;SDS011;46162;57.568;25.814;2022-11-18T11:08:55;6.63;;;1.92;;
59649;SDS011;46162;57.568;25.814;2022-11-18T11:11:28;6.18;;;2.40;;
59649;SDS011;46162;57.568;25.814;2022-11-18T11:14:06;5.63;;;1.95;;
59649;SDS011;46162;57.568;25.814;2022-11-18T11:16:45;5.82;;;2.20;;
59649;SDS011;46162;57.568;25.814;2022-11-18T11:19:20;6.00;;;2.30;;
59649;SDS011;46162;57.568;25.814;2022-11-18T11:21:52;7.18;;;2.10;;
59649;SDS011;46162;57.568;25.814;2022-11-18T11:24:23;10.13;;;3.03;;
59649;SDS011;46162;57.568;25.814;2022-11-18T11:26:59;6.57;;;2.58;;
59649;SDS011;46162;57.568;25.814;2022-11-18T11:30:02;5.10;;;2.50;;
59649;SDS011;46162;57.568;25.814;2022-11-18T11:32:48;7.93;;;2.67;;
59649;SDS011;46162;57.568;25.814;2022-11-18T11:35:48;5.07;;;1.75;;
59649;SDS011;46162;57.568;25.814;2022-11-18T11:38:25;5.40;;;1.92;;
59649;SDS011;46162;57.568;25.814;2022-11-18T11:41:09;8.43;;;3.10;;
59649;SDS011;46162;57.568;25.814;2022-11-18T11:43:53;6.00;;;2.20;;
59649;SDS011;46162;57.568;25.814;2022-11-18T11:49:41;4.47;;;1.67;;
59649;SDS011;46162;57.568;25.814;2022-11-18T11:52:23;5.32;;;1.73;;
59649;SDS011;46162;57.568;25.814;2022-11-18T11:55:01;5.75;;;2.47;;
59649;SDS011;46162;57.568;25.814;2022-11-18T11:57:48;7.40;;;2.42;;
59649;SDS011;46162;57.568;25.814;2022-11-18T12:00:30;4.85;;;2.03;;
59649;SDS011;46162;57.568;25.814;2022-11-18T12:03:11;6.80;;;2.25;;
59649;SDS011;46162;57.568;25.814;2022-11-18T12:05:55;5.25;;;2.00;;
59649;SDS011;46162;57.568;25.814;2022-11-18T12:08:24;6.32;;;2.58;;
59649;SDS011;46162;57.568;25.814;2022-11-18T12:10:58;5.65;;;2.20;;
59649;SDS011;46162;57.568;25.814;2022-11-18T12:13:35;5.57;;;1.98;;
59649;SDS011;46162;57.568;25.814;2022-11-18T12:16:23;5.38;;;2.33;;
59649;SDS011;46162;57.568;25.814;2022-11-18T12:18:56;5.75;;;2.08;;
59649;SDS011;46162;57.568;25.814;2022-11-18T12:24:31;5.75;;;2.17;;
59649;SDS011;46162;57.568;25.814;2022-11-18T12:30:25;4.90;;;2.30;;
59649;SDS011;46162;57.568;25.814;2022-11-18T12:32:56;7.40;;;2.67;;
59649;SDS011;46162;57.568;25.814;2022-11-18T12:35:25;6.80;;;3.17;;
59649;SDS011;46162;57.568;25.814;2022-11-18T12:37:59;7.50;;;3.05;;
59649;SDS011;46162;57.568;25.814;2022-11-18T12:40:34;6.70;;;2.25;;
59649;SDS011;46162;57.568;25.814;2022-11-18T12:43:05;8.80;;;2.95;;
59649;SDS011;46162;57.568;25.814;2022-11-18T12:55:32;6.18;;;2.45;;
59649;SDS011;46162;57.568;25.814;2022-11-18T12:58:19;6.13;;;2.60;;
59649;SDS011;46162;57.568;25.814;2022-11-18T13:00:50;6.13;;;2.60;;
59649;SDS011;46162;57.568;25.814;2022-11-18T13:03:33;6.93;;;2.67;;
59649;SDS011;46162;57.568;25.814;2022-11-18T13:06:06;6.15;;;2.75;;
59649;SDS011;46162;57.568;25.814;2022-11-18T13:08:47;8.15;;;2.63;;
59649;SDS011;46162;57.568;25.814;2022-11-18T13:11:18;6.47;;;2.40;;
59649;SDS011;46162;57.568;25.814;2022-11-18T13:14:05;9.35;;;2.20;;
59649;SDS011;46162;57.568;25.814;2022-11-18T13:17:14;7.45;;;2.53;;
59649;SDS011;46162;57.568;25.814;2022-11-18T13:20:22;5.47;;;2.05;;
59649;SDS011;46162;57.568;25.814;2022-11-18T13:22:53;6.07;;;2.40;;
59649;SDS011;46162;57.568;25.814;2022-11-18T13:25:43;4.65;;;1.80;;
59649;SDS011;46162;57.568;25.814;2022-11-18T13:28:18;5.85;;;2.20;;
59649;SDS011;46162;57.568;25.814;2022-11-18T13:31:00;5.80;;;2.10;;
59649;SDS011;46162;57.568;25.814;2022-11-18T13:33:36;4.78;;;1.65;;
59649;SDS011;46162;57.568;25.814;2022-11-18T13:36:13;7.65;;;2.25;;
59649;SDS011;46162;57.568;25.814;2022-11-18T13:38:53;7.28;;;2.28;;
59649;SDS011;46162;57.568;25.814;2022-11-18T13:41:24;4.57;;;1.10;;
59649;SDS011;46162;57.568;25.814;2022-11-18T13:44:11;4.28;;;1.52;;
59649;SDS011;46162;57.568;25.814;2022-11-18T13:46:46;4.03;;;1.30;;
59649;SDS011;46162;57.568;25.814;2022-11-18T13:49:19;4.10;;;1.50;;
59649;SDS011;46162;57.568;25.814;2022-11-18T13:51:51;3.97;;;1.50;;
59649;SDS011;46162;57.568;25.814;2022-11-18T13:54:22;4.75;;;1.52;;
59649;SDS011;46162;57.568;25.814;2022-11-18T13:56:55;5.85;;;2.03;;
59649;SDS011;46162;57.568;25.814;2022-11-18T13:59:24;4.93;;;1.55;;
59649;SDS011;46162;57.568;25.814;2022-11-18T14:01:54;4.22;;;1.73;;
59649;SDS011;46162;57.568;25.814;2022-11-18T14:04:26;5.25;;;1.30;;
59649;SDS011;46162;57.568;25.814;2022-11-18T14:09:51;5.05;;;1.60;;
59649;SDS011;46162;57.568;25.814;2022-11-18T14:12:23;6.28;;;1.70;;
59649;SDS011;46162;57.568;25.814;2022-11-18T14:15:13;3.60;;;1.02;;
59649;SDS011;46162;57.568;25.814;2022-11-18T14:17:56;4.82;;;1.15;;
59649;SDS011;46162;57.568;25.814;2022-11-18T14:20:27;3.63;;;1.27;;
59649;SDS011;46162;57.568;25.814;2022-11-18T14:23:00;4.15;;;1.13;;
59649;SDS011;46162;57.568;25.814;2022-11-18T14:25:32;4.05;;;1.02;;
59649;SDS011;46162;57.568;25.814;2022-11-18T14:28:10;4.22;;;1.25;;
59649;SDS011;46162;57.568;25.814;2022-11-18T14:30:40;4.78;;;1.30;;
59649;SDS011;46162;57.568;25.814;2022-11-18T14:33:22;5.30;;;1.60;;
59649;SDS011;46162;57.568;25.814;2022-11-18T14:35:52;4.72;;;1.50;;
59649;SDS011;46162;57.568;25.814;2022-11-18T14:38:24;5.82;;;1.30;;
59649;SDS011;46162;57.568;25.814;2022-11-18T14:41:18;4.28;;;1.40;;
59649;SDS011;46162;57.568;25.814;2022-11-18T14:44:12;3.90;;;1.25;;
59649;SDS011;46162;57.568;25.814;2022-11-18T14:46:42;4.72;;;1.45;;
59649;SDS011;46162;57.568;25.814;2022-11-18T14:49:11;4.70;;;1.77;;
59649;SDS011;46162;57.568;25.814;2022-11-18T14:51:43;5.32;;;1.75;;
59649;SDS011;46162;57.568;25.814;2022-11-18T14:54:12;4.90;;;1.70;;
59649;SDS011;46162;57.568;25.814;2022-11-18T14:56:51;5.03;;;1.55;;
59649;SDS011;46162;57.568;25.814;2022-11-18T14:59:23;4.15;;;1.30;;
59649;SDS011;46162;57.568;25.814;2022-11-18T15:01:55;4.28;;;1.27;;
59649;SDS011;46162;57.568;25.814;2022-11-18T15:04:24;9.38;;;1.77;;
59649;SDS011;46162;57.568;25.814;2022-11-18T15:06:53;3.63;;;1.45;;
59649;SDS011;46162;57.568;25.814;2022-11-18T15:09:22;3.67;;;1.30;;
59649;SDS011;46162;57.568;25.814;2022-11-18T15:11:50;6.50;;;1.88;;
59649;SDS011;46162;57.568;25.814;2022-11-18T15:14:19;4.03;;;1.70;;
59649;SDS011;46162;57.568;25.814;2022-11-18T15:16:50;6.25;;;1.85;;
59649;SDS011;46162;57.568;25.814;2022-11-18T15:19:18;5.57;;;1.95;;
59649;SDS011;46162;57.568;25.814;2022-11-18T15:21:47;4.45;;;1.45;;
59649;SDS011;46162;57.568;25.814;2022-11-18T15:24:16;5.78;;;2.40;;
59649;SDS011;46162;57.568;25.814;2022-11-18T15:26:46;6.03;;;2.25;;
59649;SDS011;46162;57.568;25.814;2022-11-18T15:29:15;4.40;;;1.60;;
59649;SDS011;46162;57.568;25.814;2022-11-18T15:31:45;5.30;;;2.30;;
59649;SDS011;46162;57.568;25.814;2022-11-18T15:34:17;4.70;;;2.08;;
59649;SDS011;46162;57.568;25.814;2022-11-18T15:36:48;6.28;;;2.60;;
59649;SDS011;46162;57.568;25.814;2022-11-18T15:39:16;5.88;;;1.98;;
59649;SDS011;46162;57.568;25.814;2022-11-18T15:41:45;3.72;;;1.75;;
59649;SDS011;46162;57.568;25.814;2022-11-18T15:44:14;5.15;;;2.20;;